createdAt,value
2022-07-28T00:00:17.379Z,101163.91
2022-07-28T00:05:27.575Z,101151.91
2022-07-28T00:16:02.251Z,101143.16
2022-07-28T00:21:06.367Z,101141.56
2022-07-28T00:26:15.689Z,101134.34
2022-07-28T00:31:21.624Z,101133.53
2022-07-28T00:36:29.362Z,101125.50
2022-07-28T00:52:21.175Z,101115.44
2022-07-28T00:57:26.773Z,101115.34
2022-07-28T01:05:44.024Z,101107.69
2022-07-28T01:11:12.216Z,101112.47
2022-07-28T01:16:18.269Z,101103.66
2022-07-28T01:28:19.661Z,101103.13
2022-07-28T01:33:46.582Z,101095.84
2022-07-28T01:38:53.158Z,101079.81
2022-07-28T01:44:08.092Z,101080.91
2022-07-28T01:49:24.779Z,101066.03
2022-07-28T01:54:42.150Z,101061.63
2022-07-28T01:59:50.362Z,101053.53
2022-07-28T02:05:11.007Z,101052.59
2022-07-28T02:10:24.601Z,101054.97
2022-07-28T02:15:47.037Z,101057.31
2022-07-28T02:20:53.530Z,101078.84
2022-07-28T02:26:20.414Z,101064.44
2022-07-28T02:31:36.790Z,101049.66
2022-07-28T02:36:53.596Z,101056.41
2022-07-28T02:48:12.497Z,101058.41
2022-07-28T02:58:43.827Z,101034.28
2022-07-28T03:04:02.812Z,101027.44
2022-07-28T03:09:19.029Z,101024.56
2022-07-28T03:14:35.087Z,101037.28
2022-07-28T03:19:42.547Z,101043.22
2022-07-28T03:25:06.953Z,101050.88
2022-07-28T03:30:21.938Z,101044.94
2022-07-28T03:35:30.232Z,101042.56
2022-07-28T03:40:46.224Z,101035.75
2022-07-28T03:45:55.072Z,101042.84
2022-07-28T03:56:26.295Z,101048.88
2022-07-28T04:01:33.925Z,101036.53
2022-07-28T04:06:40.277Z,101028.63
2022-07-28T04:11:48.522Z,101024.66
2022-07-28T04:38:44.961Z,101055.47
2022-07-28T04:44:15.671Z,101058.00
2022-07-28T04:49:44.088Z,101052.13
2022-07-28T04:54:52.391Z,101050.66
2022-07-28T04:59:59.348Z,101058.03
2022-07-28T05:05:28.096Z,101038.28
2022-07-28T05:10:37.329Z,101061.63
2022-07-28T05:15:45.743Z,101050.63
2022-07-28T05:21:06.604Z,101073.13
2022-07-28T05:26:10.483Z,101070.78
2022-07-28T05:31:16.655Z,101091.59
2022-07-28T05:36:18.976Z,101095.94
2022-07-28T05:41:21.327Z,101093.06
2022-07-28T05:46:25.770Z,101087.41
2022-07-28T05:51:29.486Z,101053.88
2022-07-28T05:56:37.256Z,101070.34
2022-07-28T06:01:43.398Z,101069.16
2022-07-28T06:06:49.767Z,101134.25
2022-07-28T06:11:51.992Z,101130.19
2022-07-28T06:16:56.137Z,101112.09
2022-07-28T06:22:01.492Z,101089.47
2022-07-28T06:27:04.743Z,101124.34
2022-07-28T06:32:09.003Z,101152.09
2022-07-28T06:37:17.056Z,101170.75
2022-07-28T06:42:20.768Z,101161.84
2022-07-28T06:47:24.403Z,101136.63
2022-07-28T06:57:49.820Z,101138.06
2022-07-28T07:02:54.239Z,101129.59
2022-07-28T07:07:58.268Z,101125.53
2022-07-28T07:13:02.833Z,101161.84
2022-07-28T07:18:07.340Z,101175.34
2022-07-28T07:23:21.053Z,101187.69
2022-07-28T07:33:46.623Z,101215.03
2022-07-28T07:38:51.545Z,101197.63
2022-07-28T07:44:01.652Z,101184.75
2022-07-28T07:49:24.092Z,101188.72
2022-07-28T07:54:38.589Z,101193.84
2022-07-28T07:59:47.626Z,101192.94
2022-07-28T08:04:55.633Z,101184.09
2022-07-28T08:10:00.200Z,101179.34
2022-07-28T08:15:12.389Z,101170.00
2022-07-28T08:20:29.398Z,101188.66
2022-07-28T08:25:43.206Z,101179.31
2022-07-28T08:30:54.322Z,101188.94
2022-07-28T08:36:13.792Z,101169.94
2022-07-28T08:41:51.616Z,101164.63
2022-07-28T08:47:04.356Z,101173.34
2022-07-28T08:52:21.623Z,101196.03
2022-07-28T08:57:59.305Z,101169.84
2022-07-28T09:03:14.768Z,101189.78
2022-07-28T09:08:20.828Z,101193.59
2022-07-28T09:13:38.613Z,101193.19
2022-07-28T09:18:54.075Z,101191.94
2022-07-28T09:24:00.068Z,101186.59
2022-07-28T09:29:08.199Z,101190.06
2022-07-28T09:34:12.048Z,101194.19
2022-07-28T09:39:49.883Z,101196.22
2022-07-28T09:45:26.840Z,101203.50
2022-07-28T09:50:54.670Z,101187.94
2022-07-28T09:56:04.392Z,101185.25
2022-07-28T10:01:17.958Z,101183.72
2022-07-28T10:06:52.424Z,101176.97
2022-07-28T10:12:16.926Z,101169.34
2022-07-28T10:17:46.372Z,101169.28
2022-07-28T10:23:09.027Z,101169.28
2022-07-28T10:28:17.074Z,101169.75
2022-07-28T10:33:27.064Z,101159.31
2022-07-28T10:39:00.194Z,101170.53
2022-07-28T10:44:21.788Z,101158.47
2022-07-28T10:49:33.211Z,101156.88
2022-07-28T10:54:50.054Z,101170.94
2022-07-28T11:00:29.694Z,101160.41
2022-07-28T11:05:53.897Z,101156.31
2022-07-28T11:11:08.856Z,101163.78
2022-07-28T11:16:20.960Z,101165.75
2022-07-28T11:26:52.516Z,101159.88
2022-07-28T11:31:59.117Z,101160.94
2022-07-28T11:37:15.101Z,101166.81
2022-07-28T11:42:39.291Z,101147.56
2022-07-28T11:47:55.853Z,101154.72
2022-07-28T11:53:05.878Z,101167.94
2022-07-28T11:58:27.845Z,101169.56
2022-07-28T12:03:49.510Z,101176.78
2022-07-28T12:09:34.790Z,101178.78
2022-07-28T12:14:47.357Z,101176.94
2022-07-28T12:19:51.905Z,101161.75
2022-07-28T12:25:13.524Z,101159.94
2022-07-28T12:30:36.540Z,101155.84
2022-07-28T12:35:54.080Z,101134.47
2022-07-28T12:41:00.128Z,101126.75
2022-07-28T12:46:04.553Z,101098.22
2022-07-28T13:02:10.267Z,101168.63
2022-07-28T13:07:30.974Z,101173.50
2022-07-28T13:12:44.089Z,101169.47
2022-07-28T13:18:00.342Z,101138.13
2022-07-28T13:23:20.497Z,101141.69
2022-07-28T13:28:28.009Z,101142.13
2022-07-28T13:33:35.930Z,101145.38
2022-07-28T13:44:01.799Z,101121.03
2022-07-28T13:49:06.650Z,101151.13
2022-07-28T13:54:11.578Z,101172.78
2022-07-28T13:59:50.685Z,101178.34
2022-07-28T14:05:00.846Z,101153.97
2022-07-28T14:10:14.166Z,101149.69
2022-07-28T14:15:17.780Z,101146.69
2022-07-28T14:20:25.794Z,101147.63
2022-07-28T14:25:28.180Z,101143.34
2022-07-28T14:35:59.382Z,101181.53
2022-07-28T14:41:06.778Z,101169.03
2022-07-28T14:46:16.628Z,101146.06
2022-07-28T14:51:29.308Z,101148.34
2022-07-28T14:56:39.197Z,101131.59
2022-07-28T15:01:54.100Z,101119.91
2022-07-28T15:07:09.813Z,101135.47
2022-07-28T15:12:20.407Z,101124.31
2022-07-28T15:17:30.196Z,101129.16
2022-07-28T15:22:43.146Z,101103.47
2022-07-28T15:27:50.417Z,101100.25
2022-07-28T15:33:04.790Z,101087.00
2022-07-28T15:38:17.468Z,101102.16
2022-07-28T15:43:25.404Z,101096.22
2022-07-28T15:48:36.442Z,101086.97
2022-07-28T15:53:55.522Z,101096.06
2022-07-28T15:59:04.789Z,101074.56
2022-07-28T16:04:10.605Z,101063.31
2022-07-28T16:09:20.152Z,101072.91
2022-07-28T16:25:21.582Z,101040.75
2022-07-28T16:30:30.640Z,101049.91
2022-07-28T16:35:40.347Z,101049.00
2022-07-28T16:40:47.229Z,101058.28
2022-07-28T16:45:56.778Z,101055.09
2022-07-28T16:51:03.812Z,101057.34
2022-07-28T16:56:09.415Z,101046.53
2022-07-28T17:06:56.813Z,101054.16
2022-07-28T17:12:11.827Z,101059.97
2022-07-28T17:17:25.705Z,101056.28
2022-07-28T17:22:35.248Z,101057.50
2022-07-28T17:27:48.178Z,101077.06
2022-07-28T17:33:16.800Z,101082.19
2022-07-28T17:38:29.500Z,101083.25
2022-07-28T17:43:45.128Z,101076.38
2022-07-28T18:05:03.608Z,101077.41
2022-07-28T18:15:29.484Z,101087.59
2022-07-28T18:20:46.319Z,101093.59
2022-07-28T18:26:10.589Z,101095.94
2022-07-28T18:31:18.353Z,101068.00
2022-07-28T18:36:45.464Z,101057.59
2022-07-28T18:42:04.072Z,101071.97
2022-07-28T18:47:33.657Z,101069.63
2022-07-28T18:52:37.737Z,101067.13
2022-07-28T18:57:51.148Z,101058.63
2022-07-28T19:03:01.577Z,101075.75
2022-07-28T19:08:32.621Z,101083.72
2022-07-28T19:13:45.403Z,101106.44
2022-07-28T19:18:55.432Z,101120.75
2022-07-28T19:24:00.989Z,101152.34
2022-07-28T19:29:07.870Z,101159.56
2022-07-28T19:34:14.737Z,101156.81
2022-07-28T19:39:47.340Z,101137.22
2022-07-28T19:44:58.341Z,101135.63
2022-07-28T19:50:19.309Z,101141.97
2022-07-28T19:55:38.030Z,101147.44
2022-07-28T20:00:43.459Z,101147.72
2022-07-28T20:05:50.284Z,101143.28
2022-07-28T20:11:09.949Z,101147.28
2022-07-28T20:16:19.256Z,101160.41
2022-07-28T20:21:38.502Z,101163.06
2022-07-28T20:27:02.229Z,101167.84
2022-07-28T20:32:07.660Z,101193.41
2022-07-28T20:37:32.694Z,101207.84
2022-07-28T20:42:40.668Z,101214.25
2022-07-28T20:47:47.393Z,101221.38
2022-07-28T20:52:57.585Z,101225.00
2022-07-28T20:58:01.538Z,101230.97
2022-07-28T21:03:07.692Z,101239.38
2022-07-28T21:08:28.407Z,101233.31
2022-07-28T21:13:34.975Z,101224.50
2022-07-28T21:18:45.872Z,101236.84
2022-07-28T21:23:48.753Z,101230.38
2022-07-28T21:34:28.958Z,101227.00
2022-07-28T21:39:38.622Z,101227.00
2022-07-28T21:45:05.627Z,101236.19
2022-07-28T21:50:23.790Z,101232.88
2022-07-28T21:55:27.184Z,101230.47
2022-07-28T22:00:29.798Z,101237.59
2022-07-28T22:05:41.142Z,101235.25
2022-07-28T22:10:43.588Z,101242.91
2022-07-28T22:15:51.565Z,101245.25
2022-07-28T22:20:59.227Z,101249.22
2022-07-28T22:26:08.746Z,101250.47
2022-07-28T22:31:17.713Z,101262.41
2022-07-28T22:41:42.237Z,101276.28
2022-07-28T22:47:00.360Z,101280.72
2022-07-28T22:52:05.591Z,101286.03
2022-07-28T22:57:18.591Z,101280.88
2022-07-28T23:02:33.186Z,101284.13
2022-07-28T23:07:53.530Z,101291.34
2022-07-28T23:13:06.993Z,101292.53
2022-07-28T23:18:19.094Z,101287.38
2022-07-28T23:23:28.086Z,101278.97
2022-07-28T23:28:37.507Z,101276.19
2022-07-28T23:33:55.164Z,101284.84
2022-07-28T23:39:10.255Z,101278.63
2022-07-28T23:44:17.437Z,101276.84
2022-07-28T23:49:53.228Z,101277.84
2022-07-28T23:55:07.795Z,101275.69
